Time;durP1;ratioP1;P1;durP2;ratioP2;P2;SDS_P1;SDS_P2;PMS_P1;PMS_P2;Temp;Humidity;BMP_temperature;BMP_pressure;BME280_temperature;BME280_humidity;BME280_pressure;Samples;Min_cycle;Max_cycle;Signal;HPM_P1;HPM_P2
2021/12/08 00:00:30;;;;;;;1.10;1.10;;;3.40;99.90;;;;;;5088092;28;20169;-65
2021/12/08 00:03:01;;;;;;;1.02;1.00;;;3.40;99.90;;;;;;5088523;28;20340;-65
2021/12/08 00:05:27;;;;;;;1.00;0.85;;;3.40;99.90;;;;;;5088107;28;20156;-65
2021/12/08 00:07:53;;;;;;;3.08;1.73;;;3.50;99.90;;;;;;5087543;28;20181;-66
2021/12/08 00:13:07;;;;;;;2.33;1.92;;;3.50;99.90;;;;;;5067964;28;20326;-64
2021/12/08 00:15:36;;;;;;;1.30;1.30;;;3.50;99.90;;;;;;5067813;28;20243;-65
2021/12/08 00:18:05;;;;;;;1.10;1.10;;;3.50;99.90;;;;;;5067325;28;20161;-64
2021/12/08 00:20:32;;;;;;;1.20;1.10;;;3.50;99.90;;;;;;5067574;28;20328;-65
2021/12/08 00:23:00;;;;;;;1.55;1.45;;;3.50;99.90;;;;;;5067641;28;20173;-64
2021/12/08 00:25:26;;;;;;;0.85;0.85;;;3.50;99.90;;;;;;5073210;28;20180;-66
2021/12/08 00:27:52;;;;;;;1.23;1.08;;;3.50;99.90;;;;;;5100971;27;20195;-65
2021/12/08 00:30:18;;;;;;;2.35;2.20;;;3.50;99.90;;;;;;5107828;27;20227;-65
2021/12/08 00:32:44;;;;;;;1.10;1.10;;;3.60;99.90;;;;;;5107778;27;20179;-65
2021/12/08 00:35:11;;;;;;;0.60;0.60;;;3.50;99.90;;;;;;5107677;27;20164;-66
2021/12/08 00:37:37;;;;;;;1.48;1.38;;;3.50;99.90;;;;;;5107467;27;20377;-66
2021/12/08 00:40:05;;;;;;;3.28;1.70;;;3.50;99.90;;;;;;5107698;27;20300;-66
2021/12/08 00:42:31;;;;;;;1.30;1.20;;;3.50;99.90;;;;;;5107731;27;20195;-66
2021/12/08 00:44:59;;;;;;;1.50;1.40;;;3.50;99.90;;;;;;5102030;27;20417;-66
2021/12/08 00:47:25;;;;;;;1.50;1.20;;;3.40;99.90;;;;;;5078143;28;20408;-66
2021/12/08 00:49:51;;;;;;;2.90;1.65;;;3.40;99.90;;;;;;5078186;28;20249;-66
2021/12/08 00:52:16;;;;;;;1.63;0.93;;;3.30;99.90;;;;;;5087215;28;20157;-65
2021/12/08 00:54:42;;;;;;;5.37;1.20;;;3.20;99.90;;;;;;5087043;28;20195;-66
2021/12/08 00:57:09;;;;;;;1.08;0.95;;;3.20;99.90;;;;;;5086828;28;20183;-66
2021/12/08 00:59:35;;;;;;;1.10;0.85;;;3.00;99.90;;;;;;5085974;28;20232;-65
2021/12/08 01:02:02;;;;;;;1.57;0.80;;;2.90;99.90;;;;;;5049499;28;20165;-65
2021/12/08 01:04:37;;;;;;;1.23;1.23;;;2.80;99.90;;;;;;5066785;28;20205;-65
2021/12/08 01:07:04;;;;;;;0.73;0.73;;;2.80;99.90;;;;;;5049205;28;20183;-65
2021/12/08 01:09:31;;;;;;;1.10;1.00;;;2.70;99.90;;;;;;5085345;28;20371;-65
2021/12/08 01:11:59;;;;;;;1.33;1.33;;;2.70;99.90;;;;;;5086955;28;20172;-66
2021/12/08 01:14:25;;;;;;;0.98;0.98;;;2.60;99.90;;;;;;5086947;28;20197;-65
2021/12/08 01:16:51;;;;;;;1.97;1.30;;;2.50;99.90;;;;;;5086185;28;20243;-66
2021/12/08 01:19:18;;;;;;;3.55;2.67;;;2.50;99.90;;;;;;5086379;28;20206;-66
2021/12/08 01:21:44;;;;;;;2.58;1.77;;;2.50;99.90;;;;;;5082855;28;20183;-66
2021/12/08 01:24:10;;;;;;;2.15;1.45;;;2.40;99.90;;;;;;5066752;28;20181;-65
2021/12/08 01:26:36;;;;;;;1.43;1.40;;;2.30;99.90;;;;;;5066481;28;20569;-66
2021/12/08 01:29:03;;;;;;;0.67;0.60;;;2.30;99.90;;;;;;5066539;28;20532;-66
2021/12/08 01:31:29;;;;;;;1.50;1.27;;;2.20;99.90;;;;;;5066653;28;20175;-66
2021/12/08 01:33:55;;;;;;;1.50;1.40;;;2.20;99.90;;;;;;5066685;28;20185;-66
2021/12/08 01:36:21;;;;;;;1.17;1.13;;;2.20;99.90;;;;;;5066585;28;20308;-66
2021/12/08 01:38:47;;;;;;;1.33;1.23;;;2.20;99.90;;;;;;5066493;28;20219;-66
2021/12/08 01:41:14;;;;;;;1.17;1.17;;;2.20;99.90;;;;;;5066621;28;20180;-67
2021/12/08 01:45:57;;;;;;;3.05;1.33;;;2.20;99.90;;;;;;5066652;28;20190;-66
2021/12/08 01:46:26;;;;;;;1.67;1.58;;;2.20;99.90;;;;;;5082100;28;20196;-68
2021/12/08 01:48:52;;;;;;;2.20;1.13;;;2.20;99.90;;;;;;5086533;28;20216;-66
2021/12/08 01:51:18;;;;;;;0.90;0.63;;;2.20;99.90;;;;;;5069089;28;20165;-65
2021/12/08 01:53:47;;;;;;;3.72;1.10;;;2.20;99.90;;;;;;5086522;28;20587;-65
2021/12/08 01:56:13;;;;;;;0.73;0.73;;;2.30;99.90;;;;;;5086504;28;20183;-66
2021/12/08 01:58:39;;;;;;;1.92;1.77;;;2.20;99.90;;;;;;5086413;28;20185;-65
2021/12/08 02:01:08;;;;;;;0.55;0.55;;;2.30;99.90;;;;;;5086607;28;20184;-65
2021/12/08 02:03:37;;;;;;;1.75;1.63;;;2.30;99.90;;;;;;5080828;28;20272;-65
2021/12/08 02:06:06;;;;;;;0.73;0.73;;;2.30;99.90;;;;;;5066420;28;20178;-66
2021/12/08 02:08:33;;;;;;;0.88;0.88;;;2.30;99.90;;;;;;5066202;28;20216;-66
2021/12/08 02:11:00;;;;;;;0.60;0.60;;;2.30;99.90;;;;;;5067149;28;20185;-65
2021/12/08 02:13:27;;;;;;;0.60;0.60;;;2.20;99.90;;;;;;5066338;28;20178;-66
2021/12/08 02:15:53;;;;;;;1.38;1.30;;;2.20;99.90;;;;;;5066414;28;20178;-66
2021/12/08 02:18:19;;;;;;;0.80;0.80;;;2.30;99.90;;;;;;5066121;28;20189;-67
2021/12/08 02:20:48;;;;;;;1.83;1.40;;;2.20;99.90;;;;;;5066260;28;20255;-66
2021/12/08 02:23:15;;;;;;;0.85;0.85;;;2.20;99.90;;;;;;5066237;28;20247;-65
2021/12/08 02:25:41;;;;;;;0.70;0.70;;;2.20;99.90;;;;;;5071577;28;20173;-67
2021/12/08 02:28:10;;;;;;;1.10;1.10;;;2.20;99.90;;;;;;5085868;28;20191;-67
2021/12/08 02:30:47;;;;;;;1.13;0.90;;;2.20;99.90;;;;;;5086939;28;20173;-66
2021/12/08 02:47:27;;;;;;;1.05;1.05;;;2.30;99.90;;;;;;5069398;28;20215;-65
2021/12/08 02:49:53;;;;;;;0.82;0.82;;;2.30;99.90;;;;;;5076746;28;20279;-67
2021/12/08 02:52:19;;;;;;;1.57;1.03;;;2.30;99.90;;;;;;5089645;28;20165;-65
2021/12/08 02:54:48;;;;;;;1.30;1.30;;;2.30;99.90;;;;;;5089533;28;20488;-65
2021/12/08 02:57:16;;;;;;;0.80;0.80;;;2.30;99.90;;;;;;5089204;28;20176;-65
2021/12/08 02:59:44;;;;;;;1.63;1.63;;;2.30;99.90;;;;;;5089478;28;20160;-65
2021/12/08 03:02:10;;;;;;;1.10;1.10;;;2.30;99.90;;;;;;5089334;28;20197;-66
2021/12/08 03:04:37;;;;;;;1.17;1.17;;;2.30;99.90;;;;;;5089321;28;20227;-65
2021/12/08 03:07:03;;;;;;;3.08;1.40;;;2.20;99.90;;;;;;5081522;28;20424;-65
2021/12/08 03:09:29;;;;;;;0.95;0.95;;;2.20;99.90;;;;;;5068976;28;20260;-65
2021/12/08 03:11:57;;;;;;;0.73;0.73;;;2.30;99.90;;;;;;5069161;28;20165;-66
2021/12/08 03:14:25;;;;;;;0.90;0.90;;;2.30;99.90;;;;;;5051641;28;20734;-66
2021/12/08 03:16:55;;;;;;;0.70;0.70;;;2.30;99.90;;;;;;5068833;28;20180;-66
2021/12/08 03:19:24;;;;;;;0.60;0.60;;;2.30;99.90;;;;;;5070841;28;20374;-66
2021/12/08 03:21:50;;;;;;;1.17;1.17;;;2.30;99.90;;;;;;5070416;28;20191;-65
2021/12/08 03:30:11;;;;;;;2.05;0.88;;;2.40;99.90;;;;;;5089007;28;20204;-66
2021/12/08 03:32:11;;;;;;;1.10;0.80;;;2.50;99.90;;;;;;5080461;28;20208;-67
2021/12/08 03:34:42;;;;;;;0.88;0.88;;;2.50;99.90;;;;;;5088839;28;20271;-66
2021/12/08 03:37:09;;;;;;;2.45;1.00;;;2.50;99.90;;;;;;5088457;28;20156;-67
2021/12/08 03:39:39;;;;;;;0.77;0.75;;;2.50;99.90;;;;;;5088698;28;20389;-67
2021/12/08 03:42:05;;;;;;;1.50;1.40;;;2.50;99.90;;;;;;5088110;28;20188;-67
2021/12/08 03:44:31;;;;;;;3.13;0.67;;;2.50;99.90;;;;;;5088450;28;20409;-67
2021/12/08 03:47:01;;;;;;;1.42;1.30;;;2.60;99.90;;;;;;5088237;28;20399;-66
2021/12/08 03:49:28;;;;;;;1.23;1.20;;;2.60;99.90;;;;;;5086784;28;20660;-66
2021/12/08 03:52:02;;;;;;;3.58;1.52;;;2.60;99.90;;;;;;5068467;28;20237;-66
2021/12/08 03:54:27;;;;;;;1.10;1.10;;;2.70;99.90;;;;;;5068274;28;20260;-66
2021/12/08 03:56:53;;;;;;;2.10;1.87;;;2.70;99.90;;;;;;5068094;28;20161;-66
2021/12/08 03:59:19;;;;;;;0.80;0.80;;;2.70;99.90;;;;;;5068272;28;20249;-67
2021/12/08 04:01:44;;;;;;;1.03;1.03;;;2.70;99.90;;;;;;5068193;28;20400;-66
2021/12/08 04:04:11;;;;;;;2.47;1.13;;;2.80;99.90;;;;;;5050764;28;20272;-66
2021/12/08 04:06:52;;;;;;;1.13;1.13;;;2.80;99.90;;;;;;5067906;28;20176;-66
2021/12/08 04:09:39;;;;;;;1.38;1.05;;;2.90;99.90;;;;;;5050578;28;20433;-66
2021/12/08 04:12:06;;;;;;;1.88;1.77;;;2.90;99.90;;;;;;5069533;28;20248;-66
2021/12/08 04:14:36;;;;;;;1.13;1.10;;;2.90;99.90;;;;;;5087553;27;20252;-66
2021/12/08 04:17:12;;;;;;;1.10;1.10;;;2.90;99.90;;;;;;5087656;28;20157;-67
2021/12/08 04:19:39;;;;;;;2.10;2.00;;;2.90;99.90;;;;;;5070355;28;20312;-67
2021/12/08 04:22:10;;;;;;;1.55;1.45;;;2.90;99.90;;;;;;5087814;28;20377;-67
2021/12/08 04:24:39;;;;;;;1.30;1.20;;;2.90;99.90;;;;;;5086781;28;20180;-67
2021/12/08 04:27:10;;;;;;;1.30;1.20;;;3.00;99.90;;;;;;5070712;28;20165;-66
2021/12/08 04:29:39;;;;;;;7.95;1.85;;;3.00;99.90;;;;;;5067664;28;20229;-66
2021/12/08 04:32:07;;;;;;;0.65;0.65;;;3.00;99.90;;;;;;5067604;28;20173;-67
2021/12/08 04:34:38;;;;;;;1.58;1.10;;;3.10;99.90;;;;;;5067517;28;20190;-67
2021/12/08 04:37:15;;;;;;;1.33;1.23;;;3.10;99.90;;;;;;5067233;28;20170;-66
2021/12/08 04:42:51;;;;;;;0.98;0.98;;;3.10;99.90;;;;;;5067674;28;20193;-67
2021/12/08 04:45:20;;;;;;;1.15;1.15;;;3.20;99.90;;;;;;5073643;28;20180;-67
2021/12/08 04:48:08;;;;;;;1.40;1.30;;;3.20;99.90;;;;;;5087189;28;20449;-67
2021/12/08 04:50:49;;;;;;;3.35;1.88;;;3.20;99.90;;;;;;5087044;28;20321;-67
2021/12/08 05:04:42;;;;;;;1.85;1.50;;;3.40;99.90;;;;;;5087033;28;20238;-67
2021/12/08 05:10:00;;;;;;;2.05;1.95;;;3.50;99.90;;;;;;5072571;28;20211;-68
2021/12/08 05:12:33;;;;;;;1.75;1.65;;;3.50;99.90;;;;;;5066987;28;20196;-67
2021/12/08 05:14:58;;;;;;;11.27;1.58;;;3.60;99.90;;;;;;5066792;28;20422;-67
2021/12/08 05:17:32;;;;;;;2.03;1.80;;;3.60;99.90;;;;;;5066652;28;20162;-67
2021/12/08 05:20:02;;;;;;;1.85;1.60;;;3.70;99.90;;;;;;5066972;28;20382;-67
2021/12/08 05:22:37;;;;;;;1.15;1.15;;;3.80;99.90;;;;;;5066893;28;20189;-67
2021/12/08 05:25:09;;;;;;;1.60;1.50;;;3.80;99.90;;;;;;5066850;28;20292;-67
2021/12/08 05:27:41;;;;;;;4.72;2.25;;;3.80;99.90;;;;;;5066624;28;20162;-67
2021/12/08 05:30:07;;;;;;;1.48;1.38;;;3.80;99.90;;;;;;5066692;28;20224;-67
2021/12/08 05:32:33;;;;;;;2.00;1.80;;;3.80;99.90;;;;;;5067884;28;20296;-67
2021/12/08 05:34:59;;;;;;;3.75;1.63;;;3.80;99.90;;;;;;5049041;28;20579;-67
2021/12/08 05:37:25;;;;;;;2.07;1.93;;;3.90;99.90;;;;;;5066374;28;20208;-66
2021/12/08 05:39:52;;;;;;;1.98;1.77;;;3.90;99.90;;;;;;5066693;28;20181;-67
2021/12/08 05:42:23;;;;;;;1.45;1.35;;;3.90;99.90;;;;;;5066671;28;20157;-67
2021/12/08 05:44:50;;;;;;;2.80;1.90;;;4.00;99.90;;;;;;5070699;28;20286;-67
2021/12/08 05:47:23;;;;;;;2.13;2.03;;;4.00;99.90;;;;;;5086452;28;20278;-66
2021/12/08 05:49:50;;;;;;;1.52;1.20;;;4.10;99.90;;;;;;5086462;28;20193;-67
2021/12/08 05:52:16;;;;;;;1.52;1.42;;;4.10;99.90;;;;;;5086874;28;20176;-67
2021/12/08 05:54:44;;;;;;;2.00;1.80;;;4.10;99.90;;;;;;5070971;28;20202;-67
2021/12/08 05:57:15;;;;;;;1.83;1.73;;;4.10;99.90;;;;;;5067911;28;20162;-67
2021/12/08 05:59:43;;;;;;;2.30;2.15;;;4.10;99.90;;;;;;5068582;28;20192;-67
2021/12/08 06:02:15;;;;;;;1.73;1.63;;;4.20;99.90;;;;;;5070422;28;20180;-66
2021/12/08 06:04:42;;;;;;;2.50;2.10;;;4.20;99.90;;;;;;5066908;28;20410;-65
2021/12/08 06:07:08;;;;;;;2.35;2.05;;;4.20;99.90;;;;;;5052298;28;20178;-66
2021/12/08 06:09:35;;;;;;;1.83;1.73;;;4.20;99.90;;;;;;5085314;28;20303;-68
2021/12/08 06:12:03;;;;;;;2.08;1.10;;;4.20;99.90;;;;;;5089827;28;20184;-66
2021/12/08 06:14:32;;;;;;;2.40;2.20;;;4.20;99.90;;;;;;5089742;28;20405;-67
2021/12/08 06:17:06;;;;;;;1.25;1.15;;;4.30;99.90;;;;;;5089937;28;20412;-67
2021/12/08 06:19:33;;;;;;;3.10;2.33;;;4.30;99.90;;;;;;5089985;28;20260;-68
2021/12/08 06:21:58;;;;;;;1.42;1.33;;;4.30;99.90;;;;;;5090014;28;20161;-68
2021/12/08 06:24:24;;;;;;;2.07;1.87;;;4.30;99.90;;;;;;5089764;28;20294;-71
2021/12/08 06:26:51;;;;;;;2.30;2.20;;;4.30;99.90;;;;;;5072159;28;20418;-67
2021/12/08 06:29:18;;;;;;;5.55;2.08;;;4.30;99.90;;;;;;5089751;28;20522;-66
2021/12/08 06:31:49;;;;;;;2.40;2.28;;;4.30;99.90;;;;;;5088106;28;20166;-66
2021/12/08 06:34:15;;;;;;;2.65;2.22;;;4.30;99.90;;;;;;5089334;28;20209;-67
2021/12/08 06:37:07;;;;;;;2.05;1.80;;;4.20;99.90;;;;;;5089515;28;20172;-67
2021/12/08 06:39:49;;;;;;;2.20;2.00;;;4.20;99.90;;;;;;5086377;28;20177;-68
2021/12/08 06:42:23;;;;;;;2.45;1.83;;;4.10;99.90;;;;;;5089602;28;20278;-67
2021/12/08 06:44:51;;;;;;;2.95;2.75;;;4.10;99.90;;;;;;5089074;28;20179;-68
2021/12/08 06:47:20;;;;;;;1.83;1.73;;;4.10;99.90;;;;;;5087996;28;20183;-66
2021/12/08 06:49:50;;;;;;;4.68;2.45;;;4.00;99.90;;;;;;5089360;28;20192;-67
2021/12/08 06:52:22;;;;;;;8.48;2.40;;;4.00;99.90;;;;;;5089351;28;20204;-67
2021/12/08 06:55:11;;;;;;;2.90;2.38;;;4.00;99.90;;;;;;5089061;28;20449;-70
2021/12/08 06:57:45;;;;;;;4.07;2.65;;;4.00;99.90;;;;;;5085678;28;20181;-68
2021/12/08 07:00:23;;;;;;;3.53;2.90;;;4.00;99.90;;;;;;5089353;28;20164;-68
2021/12/08 07:03:00;;;;;;;2.35;2.05;;;4.10;99.90;;;;;;5088996;28;20319;-67
2021/12/08 07:05:31;;;;;;;1.50;1.48;;;4.10;99.90;;;;;;5088879;28;20364;-67
2021/12/08 07:08:06;;;;;;;2.97;1.95;;;4.00;99.90;;;;;;5088368;28;20157;-68
2021/12/08 07:10:42;;;;;;;2.70;2.20;;;4.10;99.90;;;;;;5088576;28;20188;-66
2021/12/08 07:13:12;;;;;;;2.47;2.25;;;4.00;99.90;;;;;;5088528;28;20227;-68
2021/12/08 07:15:53;;;;;;;1.63;1.52;;;4.10;99.90;;;;;;5088272;28;20399;-69
2021/12/08 07:18:25;;;;;;;1.45;1.40;;;4.10;99.90;;;;;;5086069;28;20393;-69
2021/12/08 07:21:00;;;;;;;6.22;3.10;;;4.10;99.90;;;;;;5087637;28;20187;-68
2021/12/08 07:23:36;;;;;;;4.53;3.33;;;4.20;99.90;;;;;;5087226;28;20176;-69
2021/12/08 07:26:09;;;;;;;2.90;2.25;;;4.20;99.90;;;;;;5087423;28;20164;-68
2021/12/08 07:28:37;;;;;;;2.28;1.77;;;4.30;99.90;;;;;;5086838;28;20408;-68
2021/12/08 07:31:32;;;;;;;1.90;1.70;;;4.30;99.90;;;;;;5087691;28;20316;-68
2021/12/08 07:34:04;;;;;;;1.80;1.73;;;4.30;99.90;;;;;;5058054;28;20196;-68
2021/12/08 07:36:33;;;;;;;2.03;1.90;;;4.40;99.90;;;;;;5088613;28;20168;-67
2021/12/08 07:38:59;;;;;;;4.55;1.75;;;4.40;99.90;;;;;;5088613;28;20180;-66
2021/12/08 07:41:33;;;;;;;2.60;2.10;;;4.40;99.90;;;;;;5088764;28;20161;-68
2021/12/08 07:44:04;;;;;;;3.78;2.30;;;4.50;99.90;;;;;;5088576;28;20177;-68
2021/12/08 07:46:35;;;;;;;2.00;1.90;;;4.60;99.90;;;;;;5088381;28;20212;-68
2021/12/08 07:49:08;;;;;;;4.82;4.32;;;4.60;99.90;;;;;;5088229;28;20250;-68
2021/12/08 07:51:51;;;;;;;1.90;1.80;;;4.60;99.90;;;;;;5088565;28;20167;-68
2021/12/08 07:54:19;;;;;;;2.88;2.58;;;4.60;99.90;;;;;;5070850;28;20267;-68
2021/12/08 07:56:48;;;;;;;1.95;1.85;;;4.60;99.90;;;;;;5088002;28;20208;-69
2021/12/08 07:59:17;;;;;;;4.78;1.98;;;4.60;99.90;;;;;;5088232;28;20344;-67
2021/12/08 08:01:47;;;;;;;1.55;1.45;;;4.70;99.90;;;;;;5070762;28;20183;-68
2021/12/08 08:04:17;;;;;;;3.60;2.03;;;4.80;99.90;;;;;;5087976;28;20216;-68
2021/12/08 08:06:49;;;;;;;3.35;2.00;;;4.80;99.90;;;;;;5087940;28;20180;-68
2021/12/08 08:09:20;;;;;;;2.92;2.70;;;4.70;99.90;;;;;;5088028;28;20193;-68
2021/12/08 08:11:55;;;;;;;2.53;2.42;;;4.60;99.90;;;;;;5088113;28;20188;-68
2021/12/08 08:14:21;;;;;;;2.58;1.90;;;4.60;99.90;;;;;;5088002;28;20179;-69
2021/12/08 08:16:54;;;;;;;2.45;2.25;;;4.50;99.90;;;;;;5087624;28;20228;-67
2021/12/08 08:19:26;;;;;;;3.33;2.90;;;4.50;99.90;;;;;;5087963;28;20157;-69
2021/12/08 08:21:52;;;;;;;3.38;2.90;;;4.50;99.90;;;;;;5087776;28;20358;-68
2021/12/08 08:24:20;;;;;;;2.28;2.08;;;4.50;99.90;;;;;;5087742;28;20286;-70
2021/12/08 08:26:49;;;;;;;3.83;3.13;;;4.50;99.90;;;;;;5087570;28;20316;-68
2021/12/08 08:29:17;;;;;;;2.30;2.20;;;4.50;99.90;;;;;;5087601;28;20196;-69
2021/12/08 08:31:56;;;;;;;4.63;3.08;;;4.50;99.90;;;;;;5087746;28;20157;-68
2021/12/08 08:34:22;;;;;;;3.70;2.72;;;4.50;99.90;;;;;;5070908;28;20197;-68
2021/12/08 08:36:50;;;;;;;4.50;3.28;;;4.60;99.90;;;;;;5087371;28;20165;-68
2021/12/08 08:39:23;;;;;;;2.35;2.25;;;4.60;99.90;;;;;;5087512;28;20169;-69
2021/12/08 08:41:54;;;;;;;3.30;2.47;;;4.70;99.90;;;;;;5087543;28;20206;-67
2021/12/08 08:44:32;;;;;;;3.22;3.03;;;4.60;99.90;;;;;;5087407;28;20211;-69
2021/12/08 08:47:01;;;;;;;2.63;2.42;;;4.70;99.90;;;;;;5087164;28;20155;-68
2021/12/08 08:49:30;;;;;;;3.28;2.97;;;4.70;99.90;;;;;;5087188;28;20207;-69
2021/12/08 08:52:07;;;;;;;3.40;2.35;;;4.70;99.90;;;;;;5087162;28;20426;-69
2021/12/08 08:54:37;;;;;;;3.13;2.85;;;4.80;99.90;;;;;;5087117;28;20218;-69
2021/12/08 08:57:14;;;;;;;2.40;2.20;;;4.90;99.90;;;;;;5086806;28;20168;-67
2021/12/08 08:59:45;;;;;;;2.67;2.25;;;4.90;99.90;;;;;;5087227;28;20278;-69
2021/12/08 09:02:18;;;;;;;2.97;2.20;;;4.90;99.90;;;;;;5087017;28;20181;-68
2021/12/08 09:04:49;;;;;;;5.28;2.15;;;4.90;99.90;;;;;;5086673;28;20344;-69
2021/12/08 09:07:22;;;;;;;2.00;1.85;;;5.00;99.90;;;;;;5068754;28;20169;-67
2021/12/08 09:09:49;;;;;;;3.53;2.63;;;5.00;99.90;;;;;;5086752;28;20272;-69
2021/12/08 09:12:38;;;;;;;3.20;2.75;;;5.00;99.90;;;;;;5086802;28;20178;-68
2021/12/08 09:15:12;;;;;;;2.13;2.03;;;5.10;99.90;;;;;;5086774;28;20376;-68
2021/12/08 09:17:40;;;;;;;3.50;2.97;;;5.10;99.90;;;;;;5087229;28;20188;-69
2021/12/08 09:20:14;;;;;;;4.13;2.72;;;5.10;99.90;;;;;;5086802;28;20187;-68
2021/12/08 09:22:59;;;;;;;3.33;2.63;;;5.10;99.90;;;;;;5086754;28;20168;-69
2021/12/08 09:25:50;;;;;;;5.53;2.95;;;5.20;99.90;;;;;;5069122;28;20381;-68
2021/12/08 09:28:24;;;;;;;2.58;2.42;;;5.20;99.90;;;;;;5086442;28;20164;-68
2021/12/08 09:31:02;;;;;;;2.85;2.65;;;5.30;99.90;;;;;;5086799;28;20258;-68
2021/12/08 09:33:36;;;;;;;3.45;3.15;;;5.20;99.90;;;;;;5086610;28;20314;-68
2021/12/08 09:36:26;;;;;;;1.98;1.85;;;5.30;99.90;;;;;;5086689;28;20388;-69
2021/12/08 09:39:00;;;;;;;2.28;2.05;;;5.20;99.90;;;;;;5069099;28;20404;-68
2021/12/08 09:41:53;;;;;;;2.00;1.80;;;5.20;99.90;;;;;;5089109;28;20160;-68
2021/12/08 09:44:23;;;;;;;5.80;3.15;;;5.30;99.90;;;;;;5090599;28;20277;-68
2021/12/08 09:46:50;;;;;;;2.35;1.65;;;5.30;99.90;;;;;;5090362;28;20183;-69
2021/12/08 09:49:19;;;;;;;2.58;1.98;;;5.40;99.90;;;;;;5072899;28;20200;-70
2021/12/08 09:51:45;;;;;;;1.88;1.77;;;5.40;99.90;;;;;;5073046;28;20433;-68
2021/12/08 09:54:11;;;;;;;7.70;2.55;;;5.40;99.90;;;;;;5090535;28;20460;-68
2021/12/08 09:56:39;;;;;;;2.60;2.40;;;5.40;99.90;;;;;;5090236;28;20176;-68
2021/12/08 09:59:07;;;;;;;2.78;2.05;;;5.40;99.90;;;;;;5090465;28;20165;-69
2021/12/08 10:01:37;;;;;;;3.08;2.35;;;5.40;99.90;;;;;;5090334;28;20186;-68
2021/12/08 10:04:03;;;;;;;4.03;2.65;;;5.50;99.90;;;;;;5090277;28;20209;-68
2021/12/08 10:06:29;;;;;;;2.90;2.45;;;5.50;99.90;;;;;;5089964;28;20276;-68
2021/12/08 10:08:57;;;;;;;4.53;2.80;;;5.60;99.90;;;;;;5090087;28;20230;-69
2021/12/08 10:11:24;;;;;;;2.15;1.95;;;5.60;99.90;;;;;;5089908;28;20206;-68
2021/12/08 10:13:50;;;;;;;3.13;2.60;;;5.60;99.90;;;;;;5089433;28;20309;-69
2021/12/08 10:16:16;;;;;;;5.00;2.40;;;5.70;99.90;;;;;;5089446;28;20162;-69
2021/12/08 10:18:43;;;;;;;2.63;2.50;;;5.70;99.90;;;;;;5089811;28;20183;-68
2021/12/08 10:21:09;;;;;;;3.10;2.90;;;5.80;99.90;;;;;;5090094;28;20273;-68
2021/12/08 10:23:38;;;;;;;3.85;2.88;;;5.80;99.90;;;;;;5072237;28;20194;-68
2021/12/08 10:26:11;;;;;;;2.55;2.35;;;5.80;99.90;;;;;;5089953;28;20439;-68
2021/12/08 10:28:39;;;;;;;3.22;2.92;;;5.80;99.90;;;;;;5089736;28;20357;-68
2021/12/08 10:31:08;;;;;;;2.88;2.35;;;5.80;99.90;;;;;;5089877;28;20189;-68
2021/12/08 10:36:36;;;;;;;4.53;1.75;;;5.80;99.90;;;;;;5089606;28;20165;-68
2021/12/08 10:39:15;;;;;;;2.20;1.98;;;5.90;99.90;;;;;;5089823;28;20325;-68
2021/12/08 10:42:07;;;;;;;2.65;2.20;;;5.90;99.90;;;;;;5072065;28;20186;-69
2021/12/08 10:45:09;;;;;;;2.13;1.92;;;5.90;99.90;;;;;;5089562;28;20194;-68
2021/12/08 10:47:54;;;;;;;2.80;2.55;;;5.90;99.90;;;;;;5089311;28;20379;-68
2021/12/08 10:56:11;;;;;;;2.40;2.20;;;5.80;99.90;;;;;;5089306;28;20205;-69
2021/12/08 10:58:40;;;;;;;2.33;2.10;;;5.80;99.90;;;;;;5089271;28;20158;-68
2021/12/08 11:01:20;;;;;;;2.92;2.72;;;5.80;99.90;;;;;;5089185;28;20393;-69
2021/12/08 11:03:48;;;;;;;1.85;1.75;;;5.80;99.90;;;;;;5089069;28;20196;-68
2021/12/08 11:06:17;;;;;;;3.00;2.40;;;5.90;99.90;;;;;;5071633;28;20173;-69
2021/12/08 11:08:46;;;;;;;4.05;2.35;;;5.80;99.90;;;;;;5089097;28;20199;-68
2021/12/08 11:11:22;;;;;;;1.60;1.50;;;5.90;99.90;;;;;;5089056;28;20167;-68
2021/12/08 11:14:00;;;;;;;2.58;2.05;;;5.90;99.90;;;;;;5088939;28;20209;-68
2021/12/08 11:16:33;;;;;;;2.83;2.53;;;6.00;99.90;;;;;;5071475;28;20167;-68
2021/12/08 11:19:09;;;;;;;4.05;2.72;;;6.00;99.90;;;;;;5088643;28;20193;-68
2021/12/08 11:21:39;;;;;;;2.42;2.30;;;6.10;99.90;;;;;;5088770;28;20171;-68
2021/12/08 11:24:11;;;;;;;2.97;2.78;;;6.10;99.90;;;;;;5088849;28;20186;-68
2021/12/08 11:26:41;;;;;;;2.03;1.92;;;6.10;99.90;;;;;;5088601;28;20174;-67
2021/12/08 11:29:17;;;;;;;3.45;2.28;;;6.20;99.90;;;;;;5088726;28;20296;-68
2021/12/08 11:31:49;;;;;;;3.08;2.47;;;6.20;99.90;;;;;;5088866;28;20243;-68
2021/12/08 11:34:25;;;;;;;2.00;1.80;;;6.20;99.90;;;;;;5088708;28;20196;-68
2021/12/08 11:37:00;;;;;;;2.95;1.90;;;6.10;99.90;;;;;;5088416;28;20231;-68
2021/12/08 11:39:33;;;;;;;2.90;2.30;;;6.20;99.90;;;;;;5088532;28;20274;-68
2021/12/08 11:42:06;;;;;;;2.80;2.38;;;6.20;99.90;;;;;;5088540;28;20163;-68
2021/12/08 11:44:35;;;;;;;3.30;2.72;;;6.20;99.90;;;;;;5088359;28;20196;-68
2021/12/08 11:47:08;;;;;;;2.72;2.40;;;6.10;99.90;;;;;;5088090;28;20175;-68
2021/12/08 11:49:40;;;;;;;3.42;2.90;;;6.10;99.90;;;;;;5088210;28;20206;-68
2021/12/08 11:52:12;;;;;;;2.67;2.47;;;6.10;99.90;;;;;;5088216;28;20422;-69
2021/12/08 11:54:50;;;;;;;3.45;2.80;;;6.20;99.90;;;;;;5088962;28;20193;-68
2021/12/08 11:57:21;;;;;;;3.25;3.00;;;6.20;99.90;;;;;;5088225;28;20241;-69
2021/12/08 11:59:55;;;;;;;4.78;3.08;;;6.20;99.90;;;;;;5088179;28;20203;-69
2021/12/08 12:02:29;;;;;;;7.47;4.82;;;6.10;99.90;;;;;;5088168;28;20379;-69
2021/12/08 12:04:56;;;;;;;3.50;3.30;;;6.10;99.90;;;;;;5087753;28;20194;-68
2021/12/08 12:07:22;;;;;;;4.03;3.70;;;6.10;99.90;;;;;;5087894;28;20175;-69
2021/12/08 12:09:49;;;;;;;4.60;3.57;;;6.10;99.90;;;;;;5088117;28;20200;-69
2021/12/08 12:12:16;;;;;;;2.97;2.78;;;6.10;99.90;;;;;;5088133;28;20587;-70
2021/12/08 12:14:43;;;;;;;3.78;3.30;;;6.10;99.90;;;;;;5087919;28;20202;-68
2021/12/08 12:17:09;;;;;;;4.55;3.38;;;6.10;99.90;;;;;;5087710;28;20318;-67
2021/12/08 12:20:04;;;;;;;6.57;4.20;;;6.00;99.90;;;;;;5087877;28;20164;-69
2021/12/08 12:23:02;;;;;;;8.07;4.45;;;5.90;99.90;;;;;;5085727;28;20493;-68
2021/12/08 12:25:56;;;;;;;6.88;4.75;;;5.90;99.90;;;;;;5049548;28;20259;-68
2021/12/08 12:28:30;;;;;;;7.90;3.60;;;5.80;99.90;;;;;;5087407;28;20168;-68
2021/12/08 12:31:25;;;;;;;4.20;3.58;;;5.90;99.90;;;;;;5070185;28;20170;-68
2021/12/08 12:33:52;;;;;;;4.47;3.13;;;5.90;99.90;;;;;;5069973;28;20244;-68
2021/12/08 12:36:24;;;;;;;3.65;2.97;;;5.90;99.90;;;;;;5087249;28;20245;-68
2021/12/08 12:38:51;;;;;;;3.80;2.97;;;5.90;99.90;;;;;;5087489;28;20173;-67
2021/12/08 12:41:32;;;;;;;7.38;5.43;;;6.00;99.90;;;;;;5087464;28;20158;-68
2021/12/08 12:44:23;;;;;;;5.10;4.60;;;6.10;99.90;;;;;;5087456;28;20178;-68
2021/12/08 12:47:04;;;;;;;5.10;3.90;;;6.10;99.90;;;;;;5087127;28;20326;-68
2021/12/08 12:49:31;;;;;;;3.22;2.65;;;6.10;99.90;;;;;;5087307;28;20211;-68
2021/12/08 12:51:58;;;;;;;3.42;3.20;;;6.10;99.90;;;;;;5087229;28;20161;-67
2021/12/08 12:54:25;;;;;;;4.70;3.22;;;6.10;99.90;;;;;;5086925;28;20250;-68
2021/12/08 12:56:54;;;;;;;3.70;3.10;;;6.10;99.90;;;;;;5069189;28;20207;-67
2021/12/08 12:59:22;;;;;;;2.85;2.65;;;6.10;99.90;;;;;;5087116;28;20263;-68
2021/12/08 13:02:06;;;;;;;4.22;2.22;;;6.10;99.90;;;;;;5087214;28;20183;-68
2021/12/08 13:04:35;;;;;;;4.30;4.00;;;6.10;99.90;;;;;;5086830;28;20272;-68
2021/12/08 13:07:05;;;;;;;2.67;2.45;;;6.10;99.90;;;;;;5087014;28;20155;-69
2021/12/08 13:09:37;;;;;;;2.55;2.35;;;6.10;99.90;;;;;;5087030;28;20194;-69
2021/12/08 13:12:13;;;;;;;5.28;2.63;;;6.20;99.90;;;;;;5086965;28;20191;-68
2021/12/08 13:14:39;;;;;;;2.35;2.15;;;6.20;99.90;;;;;;5086476;28;20287;-67
2021/12/08 13:17:21;;;;;;;6.05;3.08;;;6.20;99.90;;;;;;5086260;28;20171;-69
2021/12/08 13:19:58;;;;;;;3.10;2.80;;;6.20;99.90;;;;;;5086883;28;20162;-68
2021/12/08 13:22:46;;;;;;;3.15;2.85;;;6.20;99.90;;;;;;5086900;28;20237;-65
2021/12/08 13:28:49;;;;;;;4.95;3.88;;;6.20;99.90;;;;;;5052294;28;20435;-70
2021/12/08 13:31:37;;;;;;;2.95;2.70;;;6.20;99.90;;;;;;5086634;28;20200;-68
2021/12/08 13:34:10;;;;;;;4.15;3.75;;;6.20;99.90;;;;;;5086286;28;20402;-68
2021/12/08 13:36:46;;;;;;;3.70;3.40;;;6.10;99.90;;;;;;5086545;28;20388;-69
2021/12/08 13:39:22;;;;;;;6.63;4.20;;;6.10;99.90;;;;;;5069273;28;20194;-67
2021/12/08 13:42:09;;;;;;;3.80;3.33;;;6.10;99.90;;;;;;5084664;28;20181;-68
2021/12/08 13:44:38;;;;;;;3.67;3.33;;;6.10;99.90;;;;;;5084481;28;20262;-68
2021/12/08 13:47:21;;;;;;;5.57;4.75;;;6.00;99.90;;;;;;5084393;28;20170;-70
2021/12/08 13:49:57;;;;;;;4.05;3.65;;;6.00;99.90;;;;;;5084637;28;20209;-68
2021/12/08 13:52:31;;;;;;;4.18;3.67;;;5.90;99.90;;;;;;5084760;28;20187;-69
2021/12/08 13:55:08;;;;;;;4.20;3.80;;;5.90;99.90;;;;;;5084727;28;20274;-71
2021/12/08 13:57:44;;;;;;;3.97;2.95;;;5.80;99.90;;;;;;5086293;28;20187;-69
2021/12/08 14:00:12;;;;;;;4.30;3.83;;;5.70;99.90;;;;;;5086590;28;20164;-70
2021/12/08 14:02:38;;;;;;;4.38;3.50;;;5.70;99.90;;;;;;5086300;28;20211;-67
2021/12/08 14:05:25;;;;;;;6.83;4.10;;;5.60;99.90;;;;;;5086481;28;20162;-70
2021/12/08 14:08:02;;;;;;;3.53;3.33;;;5.60;99.90;;;;;;5086010;28;20325;-70
2021/12/08 14:10:31;;;;;;;5.57;3.72;;;5.70;99.90;;;;;;5086397;28;20417;-69